sensor_id;sensor_type;location;lat;lon;timestamp;temperature;humidity
21612;DHT22;47005;52.292;13.452;2022-07-29T00:01:06;18.00;81.50
21612;DHT22;47005;52.292;13.452;2022-07-29T00:03:32;18.00;81.50
21612;DHT22;47005;52.292;13.452;2022-07-29T00:05:57;18.00;82.30
21612;DHT22;47005;52.292;13.452;2022-07-29T00:08:23;18.00;81.40
21612;DHT22;47005;52.292;13.452;2022-07-29T00:10:49;18.00;81.40
21612;DHT22;47005;52.292;13.452;2022-07-29T00:13:15;17.90;81.30
21612;DHT22;47005;52.292;13.452;2022-07-29T00:15:40;18.00;81.40
21612;DHT22;47005;52.292;13.452;2022-07-29T00:18:06;17.90;81.40
21612;DHT22;47005;52.292;13.452;2022-07-29T00:20:32;17.90;81.40
21612;DHT22;47005;52.292;13.452;2022-07-29T00:22:58;17.90;81.40
21612;DHT22;47005;52.292;13.452;2022-07-29T00:25:23;17.90;81.50
21612;DHT22;47005;52.292;13.452;2022-07-29T00:27:49;17.90;81.50
21612;DHT22;47005;52.292;13.452;2022-07-29T00:30:15;17.90;81.50
21612;DHT22;47005;52.292;13.452;2022-07-29T00:32:40;17.90;81.50
21612;DHT22;47005;52.292;13.452;2022-07-29T00:35:06;17.80;81.50
21612;DHT22;47005;52.292;13.452;2022-07-29T00:37:51;17.80;81.50
21612;DHT22;47005;52.292;13.452;2022-07-29T00:40:16;17.80;82.30
21612;DHT22;47005;52.292;13.452;2022-07-29T00:42:50;17.80;81.60
21612;DHT22;47005;52.292;13.452;2022-07-29T00:45:16;17.80;81.80
21612;DHT22;47005;52.292;13.452;2022-07-29T00:47:43;17.80;81.70
21612;DHT22;47005;52.292;13.452;2022-07-29T00:50:09;17.80;81.80
21612;DHT22;47005;52.292;13.452;2022-07-29T00:52:36;17.70;81.80
21612;DHT22;47005;52.292;13.452;2022-07-29T00:55:04;17.70;81.80
21612;DHT22;47005;52.292;13.452;2022-07-29T00:57:30;17.70;81.90
21612;DHT22;47005;52.292;13.452;2022-07-29T00:59:56;17.70;81.90
21612;DHT22;47005;52.292;13.452;2022-07-29T01:02:22;17.70;82.10
21612;DHT22;47005;52.292;13.452;2022-07-29T01:04:48;17.70;82.20
21612;DHT22;47005;52.292;13.452;2022-07-29T01:07:13;17.70;82.20
21612;DHT22;47005;52.292;13.452;2022-07-29T01:09:40;17.70;83.10
21612;DHT22;47005;52.292;13.452;2022-07-29T01:12:07;17.60;82.20
21612;DHT22;47005;52.292;13.452;2022-07-29T01:14:34;17.60;82.20
21612;DHT22;47005;52.292;13.452;2022-07-29T01:17:08;17.60;82.50
21612;DHT22;47005;52.292;13.452;2022-07-29T01:30:47;17.50;82.50
21612;DHT22;47005;52.292;13.452;2022-07-29T01:33:17;17.50;82.60
21612;DHT22;47005;52.292;13.452;2022-07-29T01:36:07;17.50;83.00
21612;DHT22;47005;52.292;13.452;2022-07-29T01:38:38;17.50;82.80
21612;DHT22;47005;52.292;13.452;2022-07-29T01:41:10;17.40;83.10
21612;DHT22;47005;52.292;13.452;2022-07-29T01:43:58;17.40;82.90
21612;DHT22;47005;52.292;13.452;2022-07-29T01:46:29;17.40;83.10
21612;DHT22;47005;52.292;13.452;2022-07-29T01:49:17;17.40;83.10
21612;DHT22;47005;52.292;13.452;2022-07-29T01:51:51;17.40;83.10
21612;DHT22;47005;52.292;13.452;2022-07-29T01:54:41;17.30;83.10
21612;DHT22;47005;52.292;13.452;2022-07-29T01:57:09;17.30;83.30
21612;DHT22;47005;52.292;13.452;2022-07-29T01:59:37;17.30;83.30
21612;DHT22;47005;52.292;13.452;2022-07-29T02:02:04;17.30;83.40
21612;DHT22;47005;52.292;13.452;2022-07-29T02:04:32;17.30;83.50
21612;DHT22;47005;52.292;13.452;2022-07-29T02:07:03;17.20;83.40
21612;DHT22;47005;52.292;13.452;2022-07-29T02:09:31;17.20;83.50
21612;DHT22;47005;52.292;13.452;2022-07-29T02:11:59;17.20;83.60
21612;DHT22;47005;52.292;13.452;2022-07-29T02:14:26;17.20;83.60
21612;DHT22;47005;52.292;13.452;2022-07-29T02:16:56;17.20;83.70
21612;DHT22;47005;52.292;13.452;2022-07-29T02:19:24;17.20;83.70
21612;DHT22;47005;52.292;13.452;2022-07-29T02:21:53;17.20;84.10
21612;DHT22;47005;52.292;13.452;2022-07-29T02:24:20;17.20;84.10
21612;DHT22;47005;52.292;13.452;2022-07-29T02:26:48;17.10;84.00
21612;DHT22;47005;52.292;13.452;2022-07-29T02:29:14;17.10;84.20
21612;DHT22;47005;52.292;13.452;2022-07-29T02:31:41;17.10;84.50
21612;DHT22;47005;52.292;13.452;2022-07-29T02:34:10;17.00;84.70
21612;DHT22;47005;52.292;13.452;2022-07-29T02:36:36;17.10;85.20
21612;DHT22;47005;52.292;13.452;2022-07-29T02:39:04;17.10;84.70
21612;DHT22;47005;52.292;13.452;2022-07-29T02:41:52;17.00;84.50
21612;DHT22;47005;52.292;13.452;2022-07-29T02:44:24;17.00;84.40
21612;DHT22;47005;52.292;13.452;2022-07-29T02:47:25;17.00;84.70
21612;DHT22;47005;52.292;13.452;2022-07-29T02:50:00;17.00;84.70
21612;DHT22;47005;52.292;13.452;2022-07-29T02:52:56;17.00;84.90
21612;DHT22;47005;52.292;13.452;2022-07-29T02:55:40;17.00;84.90
21612;DHT22;47005;52.292;13.452;2022-07-29T02:58:24;16.90;85.70
21612;DHT22;47005;52.292;13.452;2022-07-29T03:00:58;17.00;85.40
21612;DHT22;47005;52.292;13.452;2022-07-29T03:03:27;16.90;85.70
21612;DHT22;47005;52.292;13.452;2022-07-29T03:05:57;16.90;86.10
21612;DHT22;47005;52.292;13.452;2022-07-29T03:08:24;16.90;85.50
21612;DHT22;47005;52.292;13.452;2022-07-29T03:10:51;16.90;85.50
21612;DHT22;47005;52.292;13.452;2022-07-29T03:13:18;16.80;85.50
21612;DHT22;47005;52.292;13.452;2022-07-29T03:15:45;16.90;85.70
21612;DHT22;47005;52.292;13.452;2022-07-29T03:18:11;16.90;85.70
21612;DHT22;47005;52.292;13.452;2022-07-29T03:20:38;16.80;86.00
21612;DHT22;47005;52.292;13.452;2022-07-29T03:23:04;16.80;85.90
21612;DHT22;47005;52.292;13.452;2022-07-29T03:25:30;16.80;86.10
21612;DHT22;47005;52.292;13.452;2022-07-29T03:27:55;16.80;86.40
21612;DHT22;47005;52.292;13.452;2022-07-29T03:30:22;16.80;86.10
21612;DHT22;47005;52.292;13.452;2022-07-29T03:32:49;16.70;86.40
21612;DHT22;47005;52.292;13.452;2022-07-29T03:35:14;16.80;86.20
21612;DHT22;47005;52.292;13.452;2022-07-29T03:37:42;16.70;86.30
21612;DHT22;47005;52.292;13.452;2022-07-29T03:40:10;16.80;86.60
21612;DHT22;47005;52.292;13.452;2022-07-29T03:42:39;16.70;86.50
21612;DHT22;47005;52.292;13.452;2022-07-29T03:45:07;16.70;86.50
21612;DHT22;47005;52.292;13.452;2022-07-29T03:47:35;16.70;86.70
21612;DHT22;47005;52.292;13.452;2022-07-29T03:50:06;16.70;87.40
21612;DHT22;47005;52.292;13.452;2022-07-29T03:52:32;16.70;86.70
21612;DHT22;47005;52.292;13.452;2022-07-29T03:54:58;16.70;86.90
21612;DHT22;47005;52.292;13.452;2022-07-29T03:57:27;16.70;86.70
21612;DHT22;47005;52.292;13.452;2022-07-29T03:59:54;16.70;86.70
21612;DHT22;47005;52.292;13.452;2022-07-29T04:02:20;16.70;87.00
21612;DHT22;47005;52.292;13.452;2022-07-29T04:04:46;16.70;87.00
21612;DHT22;47005;52.292;13.452;2022-07-29T04:07:13;16.70;87.20
21612;DHT22;47005;52.292;13.452;2022-07-29T04:09:38;16.70;87.10
21612;DHT22;47005;52.292;13.452;2022-07-29T04:12:04;16.70;87.10
21612;DHT22;47005;52.292;13.452;2022-07-29T04:14:34;16.70;87.00
21612;DHT22;47005;52.292;13.452;2022-07-29T04:17:00;16.70;87.60
21612;DHT22;47005;52.292;13.452;2022-07-29T04:19:27;16.70;87.10
21612;DHT22;47005;52.292;13.452;2022-07-29T04:21:52;16.70;87.10
21612;DHT22;47005;52.292;13.452;2022-07-29T04:24:18;16.70;87.10
21612;DHT22;47005;52.292;13.452;2022-07-29T04:26:45;16.70;87.70
21612;DHT22;47005;52.292;13.452;2022-07-29T04:29:11;16.70;87.30
21612;DHT22;47005;52.292;13.452;2022-07-29T04:31:37;16.70;87.50
21612;DHT22;47005;52.292;13.452;2022-07-29T04:34:03;16.70;87.40
21612;DHT22;47005;52.292;13.452;2022-07-29T04:36:29;16.70;87.20
21612;DHT22;47005;52.292;13.452;2022-07-29T04:38:54;16.60;87.30
21612;DHT22;47005;52.292;13.452;2022-07-29T04:41:20;16.70;87.30
21612;DHT22;47005;52.292;13.452;2022-07-29T04:43:45;16.70;87.20
21612;DHT22;47005;52.292;13.452;2022-07-29T04:46:11;16.70;87.50
21612;DHT22;47005;52.292;13.452;2022-07-29T04:48:37;16.70;87.30
21612;DHT22;47005;52.292;13.452;2022-07-29T04:51:02;16.70;87.40
21612;DHT22;47005;52.292;13.452;2022-07-29T04:53:28;16.70;87.60
21612;DHT22;47005;52.292;13.452;2022-07-29T04:55:54;16.70;87.70
21612;DHT22;47005;52.292;13.452;2022-07-29T04:58:19;16.70;87.60
21612;DHT22;47005;52.292;13.452;2022-07-29T05:00:45;16.70;87.60
21612;DHT22;47005;52.292;13.452;2022-07-29T05:03:10;16.70;87.80
21612;DHT22;47005;52.292;13.452;2022-07-29T05:05:36;16.80;87.60
21612;DHT22;47005;52.292;13.452;2022-07-29T05:08:02;16.70;87.30
21612;DHT22;47005;52.292;13.452;2022-07-29T05:10:28;16.70;88.80
21612;DHT22;47005;52.292;13.452;2022-07-29T05:12:54;16.80;87.80
21612;DHT22;47005;52.292;13.452;2022-07-29T05:15:19;16.80;87.70
21612;DHT22;47005;52.292;13.452;2022-07-29T05:17:45;16.80;87.70
21612;DHT22;47005;52.292;13.452;2022-07-29T05:20:11;16.80;87.80
21612;DHT22;47005;52.292;13.452;2022-07-29T05:22:36;16.80;87.70
21612;DHT22;47005;52.292;13.452;2022-07-29T05:25:02;16.80;87.70
21612;DHT22;47005;52.292;13.452;2022-07-29T05:27:28;16.80;88.00
21612;DHT22;47005;52.292;13.452;2022-07-29T05:29:53;16.80;87.80
21612;DHT22;47005;52.292;13.452;2022-07-29T05:32:19;16.80;87.90
21612;DHT22;47005;52.292;13.452;2022-07-29T05:34:44;16.80;87.80
21612;DHT22;47005;52.292;13.452;2022-07-29T05:37:10;16.80;87.90
21612;DHT22;47005;52.292;13.452;2022-07-29T05:39:38;16.90;88.00
21612;DHT22;47005;52.292;13.452;2022-07-29T05:42:10;16.80;87.90
21612;DHT22;47005;52.292;13.452;2022-07-29T05:44:39;16.90;88.00
21612;DHT22;47005;52.292;13.452;2022-07-29T05:47:05;16.90;88.00
21612;DHT22;47005;52.292;13.452;2022-07-29T05:49:32;16.90;87.80
21612;DHT22;47005;52.292;13.452;2022-07-29T05:51:57;16.90;87.90
21612;DHT22;47005;52.292;13.452;2022-07-29T05:54:23;16.90;87.90
21612;DHT22;47005;52.292;13.452;2022-07-29T05:56:49;16.90;87.80
21612;DHT22;47005;52.292;13.452;2022-07-29T05:59:14;17.00;87.70
21612;DHT22;47005;52.292;13.452;2022-07-29T06:01:40;17.00;87.90
21612;DHT22;47005;52.292;13.452;2022-07-29T06:04:07;17.00;87.90
21612;DHT22;47005;52.292;13.452;2022-07-29T06:06:33;17.00;87.70
21612;DHT22;47005;52.292;13.452;2022-07-29T06:09:00;17.00;87.70
21612;DHT22;47005;52.292;13.452;2022-07-29T06:11:26;17.10;87.60
21612;DHT22;47005;52.292;13.452;2022-07-29T06:13:51;17.10;87.60
21612;DHT22;47005;52.292;13.452;2022-07-29T06:16:17;17.10;87.70
21612;DHT22;47005;52.292;13.452;2022-07-29T06:18:42;17.10;87.50
21612;DHT22;47005;52.292;13.452;2022-07-29T06:21:09;17.20;87.50
21612;DHT22;47005;52.292;13.452;2022-07-29T06:23:38;17.20;87.10
21612;DHT22;47005;52.292;13.452;2022-07-29T06:26:04;17.20;87.20
21612;DHT22;47005;52.292;13.452;2022-07-29T06:28:30;17.30;87.10
21612;DHT22;47005;52.292;13.452;2022-07-29T06:30:56;17.30;87.00
21612;DHT22;47005;52.292;13.452;2022-07-29T06:33:22;17.30;86.90
21612;DHT22;47005;52.292;13.452;2022-07-29T06:35:47;17.30;86.90
21612;DHT22;47005;52.292;13.452;2022-07-29T06:38:14;17.40;86.80
21612;DHT22;47005;52.292;13.452;2022-07-29T06:40:44;17.40;86.80
21612;DHT22;47005;52.292;13.452;2022-07-29T06:43:33;17.40;86.80
21612;DHT22;47005;52.292;13.452;2022-07-29T06:46:08;17.50;86.70
21612;DHT22;47005;52.292;13.452;2022-07-29T06:48:34;17.50;86.90
21612;DHT22;47005;52.292;13.452;2022-07-29T06:51:02;17.50;86.70
21612;DHT22;47005;52.292;13.452;2022-07-29T06:53:29;17.50;86.60
21612;DHT22;47005;52.292;13.452;2022-07-29T06:55:54;17.50;86.70
21612;DHT22;47005;52.292;13.452;2022-07-29T06:58:20;17.60;86.60
21612;DHT22;47005;52.292;13.452;2022-07-29T07:00:47;17.60;86.60
21612;DHT22;47005;52.292;13.452;2022-07-29T07:03:13;17.60;86.40
21612;DHT22;47005;52.292;13.452;2022-07-29T07:05:39;17.70;86.60
21612;DHT22;47005;52.292;13.452;2022-07-29T07:08:05;17.70;86.50
21612;DHT22;47005;52.292;13.452;2022-07-29T07:10:30;17.70;86.50
21612;DHT22;47005;52.292;13.452;2022-07-29T07:12:56;17.70;86.50
21612;DHT22;47005;52.292;13.452;2022-07-29T07:15:21;17.80;86.60
21612;DHT22;47005;52.292;13.452;2022-07-29T07:17:50;17.80;86.40
21612;DHT22;47005;52.292;13.452;2022-07-29T07:20:16;17.90;86.60
21612;DHT22;47005;52.292;13.452;2022-07-29T07:22:42;17.90;86.60
21612;DHT22;47005;52.292;13.452;2022-07-29T07:25:09;18.00;86.70
21612;DHT22;47005;52.292;13.452;2022-07-29T07:27:35;18.00;86.60
21612;DHT22;47005;52.292;13.452;2022-07-29T07:30:01;18.00;86.40
21612;DHT22;47005;52.292;13.452;2022-07-29T07:32:26;18.10;86.40
21612;DHT22;47005;52.292;13.452;2022-07-29T07:34:52;18.10;86.40
21612;DHT22;47005;52.292;13.452;2022-07-29T07:37:18;18.20;86.50
21612;DHT22;47005;52.292;13.452;2022-07-29T07:39:45;18.20;86.30
21612;DHT22;47005;52.292;13.452;2022-07-29T07:42:10;18.30;86.40
21612;DHT22;47005;52.292;13.452;2022-07-29T07:44:38;18.30;86.10
21612;DHT22;47005;52.292;13.452;2022-07-29T07:47:04;18.40;85.70
21612;DHT22;47005;52.292;13.452;2022-07-29T07:49:30;18.40;85.20
21612;DHT22;47005;52.292;13.452;2022-07-29T07:51:55;18.50;84.90
21612;DHT22;47005;52.292;13.452;2022-07-29T07:54:21;18.50;85.30
21612;DHT22;47005;52.292;13.452;2022-07-29T07:56:47;18.50;85.20
21612;DHT22;47005;52.292;13.452;2022-07-29T07:59:17;18.60;85.00
21612;DHT22;47005;52.292;13.452;2022-07-29T08:01:42;18.70;85.30
21612;DHT22;47005;52.292;13.452;2022-07-29T08:04:09;18.70;85.10
21612;DHT22;47005;52.292;13.452;2022-07-29T08:06:35;18.70;84.90
21612;DHT22;47005;52.292;13.452;2022-07-29T08:09:03;18.80;84.40
21612;DHT22;47005;52.292;13.452;2022-07-29T08:11:29;18.80;84.40
21612;DHT22;47005;52.292;13.452;2022-07-29T08:13:54;18.90;84.30
21612;DHT22;47005;52.292;13.452;2022-07-29T08:16:20;18.90;83.80
21612;DHT22;47005;52.292;13.452;2022-07-29T08:18:46;19.00;83.80
21612;DHT22;47005;52.292;13.452;2022-07-29T08:21:13;19.00;83.60
21612;DHT22;47005;52.292;13.452;2022-07-29T08:23:39;19.10;83.70
21612;DHT22;47005;52.292;13.452;2022-07-29T08:26:11;19.10;83.70
21612;DHT22;47005;52.292;13.452;2022-07-29T08:28:42;19.10;82.80
21612;DHT22;47005;52.292;13.452;2022-07-29T08:31:14;19.20;83.30
21612;DHT22;47005;52.292;13.452;2022-07-29T08:33:39;19.30;82.90
21612;DHT22;47005;52.292;13.452;2022-07-29T08:36:05;19.30;83.10
21612;DHT22;47005;52.292;13.452;2022-07-29T08:38:32;19.40;82.40
21612;DHT22;47005;52.292;13.452;2022-07-29T08:41:00;19.40;82.10
21612;DHT22;47005;52.292;13.452;2022-07-29T08:43:27;19.40;82.10
21612;DHT22;47005;52.292;13.452;2022-07-29T08:45:53;19.50;82.00
21612;DHT22;47005;52.292;13.452;2022-07-29T08:48:21;19.50;82.20
21612;DHT22;47005;52.292;13.452;2022-07-29T08:50:48;19.60;82.20
21612;DHT22;47005;52.292;13.452;2022-07-29T08:53:17;19.60;82.60
21612;DHT22;47005;52.292;13.452;2022-07-29T08:55:44;19.60;81.90
21612;DHT22;47005;52.292;13.452;2022-07-29T08:58:10;19.60;81.80
21612;DHT22;47005;52.292;13.452;2022-07-29T09:00:37;19.70;81.90
21612;DHT22;47005;52.292;13.452;2022-07-29T09:03:06;19.70;82.10
21612;DHT22;47005;52.292;13.452;2022-07-29T09:05:33;19.70;82.10
21612;DHT22;47005;52.292;13.452;2022-07-29T09:07:59;19.80;82.00
21612;DHT22;47005;52.292;13.452;2022-07-29T09:10:26;19.80;81.20
21612;DHT22;47005;52.292;13.452;2022-07-29T09:12:52;19.80;80.20
21612;DHT22;47005;52.292;13.452;2022-07-29T09:15:18;19.90;80.40
21612;DHT22;47005;52.292;13.452;2022-07-29T09:17:46;19.90;80.20
21612;DHT22;47005;52.292;13.452;2022-07-29T09:20:15;20.00;80.00
21612;DHT22;47005;52.292;13.452;2022-07-29T09:22:41;20.00;78.70
21612;DHT22;47005;52.292;13.452;2022-07-29T09:25:07;20.10;79.20
21612;DHT22;47005;52.292;13.452;2022-07-29T09:27:33;20.10;77.80
21612;DHT22;47005;52.292;13.452;2022-07-29T09:30:05;20.20;78.30
21612;DHT22;47005;52.292;13.452;2022-07-29T09:32:32;20.20;77.50
21612;DHT22;47005;52.292;13.452;2022-07-29T09:35:20;20.30;77.40
21612;DHT22;47005;52.292;13.452;2022-07-29T09:37:47;20.30;77.90
21612;DHT22;47005;52.292;13.452;2022-07-29T09:40:21;20.40;76.10
21612;DHT22;47005;52.292;13.452;2022-07-29T09:42:47;20.50;76.70
21612;DHT22;47005;52.292;13.452;2022-07-29T09:47:52;20.60;75.70
21612;DHT22;47005;52.292;13.452;2022-07-29T09:50:17;20.60;73.90
21612;DHT22;47005;52.292;13.452;2022-07-29T09:52:51;20.70;75.10
21612;DHT22;47005;52.292;13.452;2022-07-29T09:55:17;20.80;75.60
21612;DHT22;47005;52.292;13.452;2022-07-29T09:57:44;20.80;75.40
21612;DHT22;47005;52.292;13.452;2022-07-29T10:00:12;20.90;75.10
21612;DHT22;47005;52.292;13.452;2022-07-29T10:02:39;21.00;74.70
21612;DHT22;47005;52.292;13.452;2022-07-29T10:05:16;21.00;75.20
21612;DHT22;47005;52.292;13.452;2022-07-29T10:10:10;21.10;75.00
21612;DHT22;47005;52.292;13.452;2022-07-29T10:12:52;21.20;74.50
21612;DHT22;47005;52.292;13.452;2022-07-29T10:15:18;21.20;74.70
21612;DHT22;47005;52.292;13.452;2022-07-29T10:17:45;21.30;73.80
21612;DHT22;47005;52.292;13.452;2022-07-29T10:20:12;21.30;74.60
21612;DHT22;47005;52.292;13.452;2022-07-29T10:22:38;21.30;74.20
21612;DHT22;47005;52.292;13.452;2022-07-29T10:25:04;21.40;74.50
21612;DHT22;47005;52.292;13.452;2022-07-29T10:27:29;21.40;75.10
21612;DHT22;47005;52.292;13.452;2022-07-29T10:29:55;21.50;75.40
21612;DHT22;47005;52.292;13.452;2022-07-29T10:40:28;21.60;76.10
21612;DHT22;47005;52.292;13.452;2022-07-29T10:43:22;21.60;76.00
21612;DHT22;47005;52.292;13.452;2022-07-29T10:45:55;21.70;76.50
21612;DHT22;47005;52.292;13.452;2022-07-29T10:48:21;21.70;77.70
21612;DHT22;47005;52.292;13.452;2022-07-29T10:50:54;21.80;77.60
21612;DHT22;47005;52.292;13.452;2022-07-29T10:53:24;21.80;77.70
21612;DHT22;47005;52.292;13.452;2022-07-29T10:55:51;21.90;77.50
21612;DHT22;47005;52.292;13.452;2022-07-29T10:58:22;21.90;77.60
21612;DHT22;47005;52.292;13.452;2022-07-29T11:00:53;22.00;77.20
21612;DHT22;47005;52.292;13.452;2022-07-29T11:03:44;22.00;77.30
21612;DHT22;47005;52.292;13.452;2022-07-29T11:06:15;22.10;77.40
21612;DHT22;47005;52.292;13.452;2022-07-29T11:08:41;22.10;77.50
21612;DHT22;47005;52.292;13.452;2022-07-29T11:13:46;22.20;77.30
21612;DHT22;47005;52.292;13.452;2022-07-29T11:16:14;22.20;77.10
21612;DHT22;47005;52.292;13.452;2022-07-29T11:19:40;22.30;77.20
21612;DHT22;47005;52.292;13.452;2022-07-29T11:21:47;22.30;76.00
21612;DHT22;47005;52.292;13.452;2022-07-29T11:24:17;22.30;76.20
21612;DHT22;47005;52.292;13.452;2022-07-29T11:26:43;22.40;76.80
21612;DHT22;47005;52.292;13.452;2022-07-29T11:29:18;22.40;76.10
21612;DHT22;47005;52.292;13.452;2022-07-29T11:31:50;22.50;75.90
21612;DHT22;47005;52.292;13.452;2022-07-29T11:34:26;22.50;74.80
21612;DHT22;47005;52.292;13.452;2022-07-29T11:39:47;22.60;74.50
21612;DHT22;47005;52.292;13.452;2022-07-29T11:47:32;22.70;74.30
21612;DHT22;47005;52.292;13.452;2022-07-29T11:49:59;22.70;74.00
21612;DHT22;47005;52.292;13.452;2022-07-29T11:52:40;22.80;73.80
21612;DHT22;47005;52.292;13.452;2022-07-29T11:55:11;22.80;75.50
21612;DHT22;47005;52.292;13.452;2022-07-29T11:57:49;22.80;73.90
21612;DHT22;47005;52.292;13.452;2022-07-29T12:00:41;22.80;74.20
21612;DHT22;47005;52.292;13.452;2022-07-29T12:03:09;22.80;73.70
21612;DHT22;47005;52.292;13.452;2022-07-29T12:05:41;22.90;73.30
21612;DHT22;47005;52.292;13.452;2022-07-29T12:08:14;22.90;72.60
21612;DHT22;47005;52.292;13.452;2022-07-29T12:10:42;22.90;73.40
21612;DHT22;47005;52.292;13.452;2022-07-29T12:13:08;23.00;73.00
21612;DHT22;47005;52.292;13.452;2022-07-29T12:15:34;23.00;72.70
21612;DHT22;47005;52.292;13.452;2022-07-29T12:18:13;23.00;73.50
21612;DHT22;47005;52.292;13.452;2022-07-29T12:20:39;23.10;73.30
21612;DHT22;47005;52.292;13.452;2022-07-29T12:23:06;23.10;73.50
21612;DHT22;47005;52.292;13.452;2022-07-29T12:25:34;23.10;72.00
21612;DHT22;47005;52.292;13.452;2022-07-29T12:28:06;23.10;73.40
21612;DHT22;47005;52.292;13.452;2022-07-29T12:30:43;23.10;73.60
21612;DHT22;47005;52.292;13.452;2022-07-29T12:33:28;23.20;73.90
21612;DHT22;47005;52.292;13.452;2022-07-29T12:35:57;23.20;72.50
21612;DHT22;47005;52.292;13.452;2022-07-29T12:38:23;23.20;73.40
21612;DHT22;47005;52.292;13.452;2022-07-29T12:40:51;23.30;73.10
21612;DHT22;47005;52.292;13.452;2022-07-29T12:43:24;23.30;72.80
21612;DHT22;47005;52.292;13.452;2022-07-29T12:45:54;23.40;73.20
21612;DHT22;47005;52.292;13.452;2022-07-29T12:51:01;23.50;71.90
21612;DHT22;47005;52.292;13.452;2022-07-29T12:53:28;23.50;72.20
21612;DHT22;47005;52.292;13.452;2022-07-29T12:55:56;23.60;72.50
21612;DHT22;47005;52.292;13.452;2022-07-29T12:58:27;23.60;72.30
21612;DHT22;47005;52.292;13.452;2022-07-29T13:01:13;23.70;71.40
21612;DHT22;47005;52.292;13.452;2022-07-29T13:06:44;23.80;69.70
21612;DHT22;47005;52.292;13.452;2022-07-29T13:11:43;24.00;70.60
21612;DHT22;47005;52.292;13.452;2022-07-29T13:14:11;24.00;69.10
21612;DHT22;47005;52.292;13.452;2022-07-29T13:16:59;24.00;68.90
21612;DHT22;47005;52.292;13.452;2022-07-29T13:19:33;24.10;69.90
21612;DHT22;47005;52.292;13.452;2022-07-29T13:21:59;24.10;70.40
21612;DHT22;47005;52.292;13.452;2022-07-29T13:24:25;24.20;68.50
21612;DHT22;47005;52.292;13.452;2022-07-29T13:26:50;24.20;68.50
21612;DHT22;47005;52.292;13.452;2022-07-29T13:29:17;24.20;67.40
21612;DHT22;47005;52.292;13.452;2022-07-29T13:31:43;24.20;67.10
21612;DHT22;47005;52.292;13.452;2022-07-29T13:34:08;24.20;67.60
21612;DHT22;47005;52.292;13.452;2022-07-29T13:36:34;24.30;67.60
21612;DHT22;47005;52.292;13.452;2022-07-29T13:39:00;24.40;67.20
21612;DHT22;47005;52.292;13.452;2022-07-29T13:41:27;24.60;66.70
21612;DHT22;47005;52.292;13.452;2022-07-29T13:43:53;24.60;66.60
21612;DHT22;47005;52.292;13.452;2022-07-29T13:46:18;24.70;66.60
21612;DHT22;47005;52.292;13.452;2022-07-29T13:48:44;24.80;67.40
21612;DHT22;47005;52.292;13.452;2022-07-29T13:51:10;24.80;67.10
21612;DHT22;47005;52.292;13.452;2022-07-29T13:53:35;24.90;67.10
21612;DHT22;47005;52.292;13.452;2022-07-29T13:56:01;25.00;66.90
21612;DHT22;47005;52.292;13.452;2022-07-29T13:58:26;25.00;64.40
21612;DHT22;47005;52.292;13.452;2022-07-29T14:00:52;25.00;64.50
21612;DHT22;47005;52.292;13.452;2022-07-29T14:03:18;25.10;65.00
21612;DHT22;47005;52.292;13.452;2022-07-29T14:05:43;25.10;64.90
21612;DHT22;47005;52.292;13.452;2022-07-29T14:08:09;25.10;63.80
21612;DHT22;47005;52.292;13.452;2022-07-29T14:10:35;25.10;62.90
21612;DHT22;47005;52.292;13.452;2022-07-29T14:13:00;25.10;63.30
21612;DHT22;47005;52.292;13.452;2022-07-29T14:15:26;25.10;64.20
21612;DHT22;47005;52.292;13.452;2022-07-29T14:17:51;25.20;65.10
21612;DHT22;47005;52.292;13.452;2022-07-29T14:20:17;25.20;63.90
21612;DHT22;47005;52.292;13.452;2022-07-29T14:22:43;25.20;64.60
21612;DHT22;47005;52.292;13.452;2022-07-29T14:25:08;25.20;64.70
21612;DHT22;47005;52.292;13.452;2022-07-29T14:27:34;25.20;63.40
21612;DHT22;47005;52.292;13.452;2022-07-29T14:30:00;25.10;64.00
21612;DHT22;47005;52.292;13.452;2022-07-29T14:32:25;25.10;63.40
21612;DHT22;47005;52.292;13.452;2022-07-29T14:34:51;25.10;63.00
21612;DHT22;47005;52.292;13.452;2022-07-29T14:37:16;25.00;61.70
21612;DHT22;47005;52.292;13.452;2022-07-29T14:39:42;25.10;62.90
21612;DHT22;47005;52.292;13.452;2022-07-29T14:42:08;25.00;63.40
21612;DHT22;47005;52.292;13.452;2022-07-29T14:44:33;25.00;62.90
21612;DHT22;47005;52.292;13.452;2022-07-29T14:46:59;25.00;63.50
21612;DHT22;47005;52.292;13.452;2022-07-29T14:49:28;25.10;62.80
21612;DHT22;47005;52.292;13.452;2022-07-29T14:51:54;25.10;62.70
21612;DHT22;47005;52.292;13.452;2022-07-29T14:54:19;25.10;63.20
21612;DHT22;47005;52.292;13.452;2022-07-29T14:56:45;25.20;63.50
21612;DHT22;47005;52.292;13.452;2022-07-29T14:59:12;25.20;63.50
21612;DHT22;47005;52.292;13.452;2022-07-29T15:01:37;25.20;62.80
21612;DHT22;47005;52.292;13.452;2022-07-29T15:04:03;25.20;63.00
21612;DHT22;47005;52.292;13.452;2022-07-29T15:06:29;25.20;62.40
21612;DHT22;47005;52.292;13.452;2022-07-29T15:08:54;25.20;62.70
21612;DHT22;47005;52.292;13.452;2022-07-29T15:11:20;25.20;61.90
21612;DHT22;47005;52.292;13.452;2022-07-29T15:13:46;25.10;61.70
21612;DHT22;47005;52.292;13.452;2022-07-29T15:16:11;25.20;61.50
21612;DHT22;47005;52.292;13.452;2022-07-29T15:18:37;25.10;62.10
21612;DHT22;47005;52.292;13.452;2022-07-29T15:21:04;25.10;62.50
21612;DHT22;47005;52.292;13.452;2022-07-29T15:23:32;25.20;61.80
21612;DHT22;47005;52.292;13.452;2022-07-29T15:25:57;25.20;62.70
21612;DHT22;47005;52.292;13.452;2022-07-29T15:28:23;25.20;62.80
21612;DHT22;47005;52.292;13.452;2022-07-29T15:30:48;25.10;60.60
21612;DHT22;47005;52.292;13.452;2022-07-29T15:33:14;25.10;61.10
21612;DHT22;47005;52.292;13.452;2022-07-29T15:35:39;25.10;59.90
21612;DHT22;47005;52.292;13.452;2022-07-29T15:38:05;25.20;60.30
21612;DHT22;47005;52.292;13.452;2022-07-29T15:40:31;25.20;61.00
21612;DHT22;47005;52.292;13.452;2022-07-29T15:42:56;25.20;61.40
21612;DHT22;47005;52.292;13.452;2022-07-29T15:45:26;25.20;59.60
21612;DHT22;47005;52.292;13.452;2022-07-29T15:47:51;25.20;59.90
21612;DHT22;47005;52.292;13.452;2022-07-29T15:50:17;25.20;60.20
21612;DHT22;47005;52.292;13.452;2022-07-29T15:52:44;25.20;61.00
21612;DHT22;47005;52.292;13.452;2022-07-29T15:55:10;25.20;62.20
21612;DHT22;47005;52.292;13.452;2022-07-29T15:57:35;25.20;61.40
21612;DHT22;47005;52.292;13.452;2022-07-29T16:00:03;25.20;61.80
21612;DHT22;47005;52.292;13.452;2022-07-29T16:02:28;25.20;61.70
21612;DHT22;47005;52.292;13.452;2022-07-29T16:04:54;25.20;61.30